Aviation Digital Data Service (ADDS)

Output produced by TAFs form (1121 UTC 22 July 2014)
found at http://www.aviationweather.gov/adds/tafs/
 
KPSF 220959Z 2210/2306 22003KT P6SM SCT100 SCT250 
     TEMPO 2210/2211 1/2SM FG BKN002 
     FM221600 23006KT P6SM SCT050 SCT250 
     FM230200 23003KT P6SM BKN050